Time;durP1;ratioP1;P1;durP2;ratioP2;P2;SDS_P1;SDS_P2;PMS_P1;PMS_P2;Temp;Humidity;BMP_temperature;BMP_pressure;BME280_temperature;BME280_humidity;BME280_pressure;Samples;Min_cycle;Max_cycle;Signal;HPM_P1;HPM_P2
2023/08/17 00:00:50;;;;;;;7.47;4.20;;;;;;;18.38;100.00;100565.25;4972703;28;20053;-75
2023/08/17 00:03:18;;;;;;;9.00;4.88;;;;;;;18.32;100.00;100557.66;5001094;28;20050;-75
2023/08/17 00:05:46;;;;;;;8.27;4.85;;;;;;;18.34;100.00;100574.50;5005475;28;20065;-75
2023/08/17 00:08:20;;;;;;;9.20;4.97;;;;;;;18.33;100.00;100570.97;5010445;28;20034;-74
2023/08/17 00:10:51;;;;;;;10.00;4.78;;;;;;;18.36;100.00;100565.38;4990970;28;20109;-77
2023/08/17 00:13:19;;;;;;;6.57;4.22;;;;;;;18.39;100.00;100561.59;4983615;28;20120;-75
2023/08/17 00:15:47;;;;;;;11.02;4.72;;;;;;;18.36;100.00;100557.31;4994188;28;20061;-75
2023/08/17 00:18:16;;;;;;;8.45;4.60;;;;;;;18.36;100.00;100557.31;4976068;28;20413;-74
2023/08/17 00:20:45;;;;;;;8.23;4.47;;;;;;;18.33;100.00;100548.66;5008724;28;20097;-75
2023/08/17 00:23:14;;;;;;;9.88;5.30;;;;;;;18.36;100.00;100551.97;4997866;28;20129;-74
2023/08/17 00:25:45;;;;;;;8.00;4.85;;;;;;;18.34;100.00;100555.72;4988075;28;20057;-74
2023/08/17 00:28:13;;;;;;;8.30;4.55;;;;;;;18.32;100.00;100550.47;4990286;28;20073;-74
2023/08/17 00:30:41;;;;;;;7.03;4.30;;;;;;;18.33;100.00;100545.97;4986517;28;20569;-74
2023/08/17 00:33:10;;;;;;;11.73;6.10;;;;;;;18.31;100.00;100547.91;4980626;28;20198;-73
2023/08/17 00:35:38;;;;;;;8.73;5.22;;;;;;;18.31;100.00;100545.25;4990131;28;20050;-74
2023/08/17 00:38:11;;;;;;;8.52;4.88;;;;;;;18.30;100.00;100555.09;4974500;28;20052;-75
2023/08/17 00:40:41;;;;;;;8.93;4.88;;;;;;;18.25;100.00;100549.25;4994729;28;20088;-74
2023/08/17 00:43:10;;;;;;;;;;;;;;;18.27;100.00;100547.28;5001806;28;20101;-74
2023/08/17 00:45:38;;;;;;;11.38;5.47;;;;;;;18.23;100.00;100548.53;5006175;28;19931;-75
2023/08/17 00:48:08;;;;;;;7.72;4.80;;;;;;;18.18;100.00;100548.00;4989482;28;20073;-74
2023/08/17 00:50:38;;;;;;;13.15;5.32;;;;;;;18.16;100.00;100547.25;4987792;28;20037;-74
2023/08/17 00:53:12;;;;;;;9.68;5.32;;;;;;;18.11;100.00;100544.06;4967650;28;20062;-73
2023/08/17 00:55:41;;;;;;;12.65;6.10;;;;;;;18.07;100.00;100540.78;4991488;28;20046;-75
2023/08/17 00:58:16;;;;;;;15.82;5.78;;;;;;;18.07;100.00;100545.28;4979862;28;20075;-75
2023/08/17 01:00:45;;;;;;;11.93;4.77;;;;;;;18.05;100.00;100553.44;5010329;28;20052;-75
2023/08/17 01:03:16;;;;;;;11.57;5.40;;;;;;;18.05;100.00;100555.28;4984617;28;20109;-74
2023/08/17 01:05:45;;;;;;;11.15;5.78;;;;;;;18.03;100.00;100547.34;4987171;28;20049;-75
2023/08/17 01:08:14;;;;;;;12.52;6.28;;;;;;;18.00;100.00;100544.88;4956893;28;20608;-75
2023/08/17 01:10:51;;;;;;;16.60;5.78;;;;;;;18.01;100.00;100548.44;4974296;28;20046;-75
2023/08/17 01:13:30;;;;;;;11.98;6.10;;;;;;;17.97;100.00;100544.25;5005026;28;20065;-74
2023/08/17 01:16:03;;;;;;;11.63;5.90;;;;;;;17.97;100.00;100549.63;4981314;28;20042;-73
2023/08/17 01:18:35;;;;;;;14.15;6.60;;;;;;;17.96;100.00;100546.09;4997122;28;20064;-73
2023/08/17 01:21:07;;;;;;;12.82;6.88;;;;;;;17.96;100.00;100542.53;4999903;28;20592;-75
2023/08/17 01:23:36;;;;;;;17.13;9.15;;;;;;;17.92;100.00;100541.94;4991767;28;20046;-75
2023/08/17 01:26:05;;;;;;;19.67;8.75;;;;;;;17.88;100.00;100545.81;4995795;28;20063;-75
2023/08/17 01:28:33;;;;;;;19.48;8.38;;;;;;;17.76;100.00;100523.50;4970452;28;20475;-75
2023/08/17 01:31:08;;;;;;;18.92;9.32;;;;;;;17.80;100.00;100524.94;4986769;28;20106;-75
2023/08/17 01:33:41;;;;;;;16.80;8.55;;;;;;;17.82;100.00;100528.38;4978094;28;20134;-75
2023/08/17 01:36:20;;;;;;;20.65;9.40;;;;;;;17.78;100.00;100526.91;4995216;28;20574;-75
2023/08/17 01:38:54;;;;;;;15.43;9.20;;;;;;;17.81;100.00;100523.97;4997296;28;20064;-74
2023/08/17 01:41:26;;;;;;;14.73;8.20;;;;;;;17.80;100.00;100530.31;5025817;28;20093;-74
2023/08/17 01:43:55;;;;;;;16.63;9.13;;;;;;;17.79;100.00;100517.03;5009651;28;20125;-72
2023/08/17 01:46:29;;;;;;;14.48;8.07;;;;;;;17.79;100.00;100531.28;5019785;28;20054;-74
2023/08/17 01:49:04;;;;;;;13.98;7.88;;;;;;;17.79;100.00;100525.91;5006078;28;20362;-75
2023/08/17 01:51:32;;;;;;;13.57;7.53;;;;;;;17.78;100.00;100529.59;5012529;28;20053;-75
2023/08/17 01:54:07;;;;;;;15.32;8.05;;;;;;;17.78;100.00;100523.38;5008130;28;20038;-75
2023/08/17 01:56:37;;;;;;;15.20;7.20;;;;;;;17.70;100.00;100521.25;5015496;28;20042;-74
2023/08/17 01:59:08;;;;;;;15.93;8.02;;;;;;;17.67;100.00;100521.47;4996636;28;20433;-74
2023/08/17 02:01:36;;;;;;;19.50;8.75;;;;;;;17.65;100.00;100527.91;4999377;28;20038;-75
2023/08/17 02:04:04;;;;;;;16.52;8.60;;;;;;;17.65;100.00;100525.22;4994732;28;20046;-75
2023/08/17 02:06:33;;;;;;;18.70;9.07;;;;;;;17.51;100.00;100496.78;5011718;28;20137;-75
2023/08/17 02:09:03;;;;;;;23.75;9.35;;;;;;;17.59;100.00;100515.81;5000527;28;20061;-75
2023/08/17 02:11:33;;;;;;;24.35;9.90;;;;;;;17.55;100.00;100511.66;5018131;28;20038;-76
2023/08/17 02:14:02;;;;;;;34.08;11.63;;;;;;;17.52;100.00;100510.06;4979134;28;20050;-73
2023/08/17 02:16:30;;;;;;;32.72;11.15;;;;;;;17.54;100.00;100509.94;5017578;28;20052;-75
2023/08/17 02:18:58;;;;;;;21.98;9.38;;;;;;;17.53;100.00;100510.91;4984304;28;20312;-75
2023/08/17 02:21:26;;;;;;;31.40;10.98;;;;;;;17.52;100.00;100507.38;4980873;28;20054;-74
2023/08/17 02:23:55;;;;;;;22.52;9.80;;;;;;;17.56;100.00;100505.34;4993451;28;20322;-76
2023/08/17 02:26:26;;;;;;;21.98;9.80;;;;;;;17.54;100.00;100501.91;5010908;28;20050;-76
2023/08/17 02:28:55;;;;;;;18.73;8.88;;;;;;;17.53;100.00;100514.44;4999384;28;20490;-76
2023/08/17 02:31:25;;;;;;;18.30;8.70;;;;;;;17.51;100.00;100510.16;4998532;28;20041;-75
2023/08/17 02:33:53;;;;;;;21.88;9.88;;;;;;;17.53;100.00;100500.19;4990708;28;20050;-75
2023/08/17 02:36:21;;;;;;;18.70;9.85;;;;;;;17.57;100.00;100508.88;4982566;28;20109;-76
2023/08/17 02:38:49;;;;;;;20.30;9.40;;;;;;;17.53;100.00;100509.09;5006664;28;20049;-75
2023/08/17 02:41:18;;;;;;;20.05;9.77;;;;;;;17.48;100.00;100499.66;4997951;28;20081;-76
2023/08/17 02:43:48;;;;;;;20.63;9.95;;;;;;;17.50;100.00;100503.09;4990585;28;20184;-74
2023/08/17 02:46:18;;;;;;;16.67;8.80;;;;;;;17.47;100.00;100498.00;5005059;28;20045;-74
2023/08/17 02:48:47;;;;;;;17.80;9.00;;;;;;;17.46;100.00;100496.28;4992582;28;20050;-74
2023/08/17 02:51:15;;;;;;;18.70;10.07;;;;;;;17.46;100.00;100496.28;4994266;28;20042;-74
2023/08/17 02:53:43;;;;;;;18.48;9.55;;;;;;;17.45;100.00;100494.56;4989020;28;20093;-75
2023/08/17 02:56:13;;;;;;;19.52;9.48;;;;;;;17.49;100.00;100499.56;4986190;28;20136;-74
2023/08/17 02:58:43;;;;;;;23.42;9.82;;;;;;;17.46;100.00;100497.13;4976983;28;20518;-73
2023/08/17 03:01:13;;;;;;;17.38;9.23;;;;;;;17.43;100.00;100496.50;4989451;28;20041;-75
2023/08/17 03:03:41;;;;;;;16.83;8.90;;;;;;;17.42;100.00;100492.13;4976872;28;20050;-75
2023/08/17 03:06:12;;;;;;;21.10;8.52;;;;;;;17.38;100.00;100488.81;4982417;28;20498;-75
2023/08/17 03:08:40;;;;;;;25.73;9.63;;;;;;;17.38;100.00;100485.28;5003451;28;20048;-74
2023/08/17 03:11:09;;;;;;;16.83;8.48;;;;;;;17.39;100.00;100486.97;5008042;28;20054;-74
2023/08/17 03:13:39;;;;;;;15.82;8.07;;;;;;;17.40;100.00;100480.66;5003064;28;20054;-75
2023/08/17 03:16:08;;;;;;;15.25;8.48;;;;;;;17.39;100.00;100486.97;5003321;28;20145;-75
2023/08/17 03:18:39;;;;;;;20.52;9.88;;;;;;;17.34;100.00;100483.78;4981110;28;20129;-75
2023/08/17 03:21:12;;;;;;;16.85;8.50;;;;;;;17.30;100.00;100482.31;4987181;28;20457;-75
2023/08/17 03:23:42;;;;;;;22.70;9.25;;;;;;;17.32;100.00;100477.69;5005381;28;20093;-75
2023/08/17 03:26:10;;;;;;;16.08;8.88;;;;;;;17.28;100.00;100487.78;4986747;28;20054;-75
2023/08/17 03:28:40;;;;;;;13.65;8.32;;;;;;;17.23;100.00;100476.53;4989166;28;20161;-75
2023/08/17 03:31:09;;;;;;;19.60;9.40;;;;;;;17.29;100.00;100488.63;4988974;28;20113;-75
2023/08/17 03:33:40;;;;;;;12.20;8.70;;;;;;;17.25;100.00;100485.31;4992388;28;20158;-76
2023/08/17 03:36:12;;;;;;;16.52;9.50;;;;;;;17.26;100.00;100488.84;4989333;28;20485;-75
2023/08/17 03:38:40;;;;;;;17.85;9.20;;;;;;;17.22;100.00;100490.88;4986723;28;20573;-76
2023/08/17 03:41:08;;;;;;;15.25;8.65;;;;;;;17.17;100.00;100496.56;5011671;28;20577;-76
2023/08/17 03:43:37;;;;;;;23.10;10.25;;;;;;;17.15;100.00;100490.50;4991783;28;20070;-76
2023/08/17 03:46:06;;;;;;;28.67;11.32;;;;;;;17.12;100.00;100490.72;4980996;28;20058;-73
2023/08/17 03:48:35;;;;;;;18.55;9.23;;;;;;;17.10;100.00;100487.28;4991932;28;20042;-74
2023/08/17 03:51:08;;;;;;;18.67;9.30;;;;;;;17.13;100.00;100496.94;4994644;28;20062;-75
2023/08/17 03:53:37;;;;;;;18.17;9.75;;;;;;;17.15;100.00;100497.66;4994461;28;20069;-77
2023/08/17 03:56:07;;;;;;;23.58;10.27;;;;;;;17.16;100.00;100504.69;5005797;28;20133;-75
2023/08/17 03:58:37;;;;;;;19.48;9.07;;;;;;;17.06;100.00;100488.47;5011986;28;20124;-76
2023/08/17 04:01:07;;;;;;;19.02;9.63;;;;;;;17.12;100.00;100506.78;4977284;28;20073;-76
2023/08/17 04:03:36;;;;;;;23.25;10.82;;;;;;;17.14;100.00;100509.34;4990551;28;20557;-75
2023/08/17 04:06:10;;;;;;;28.73;11.27;;;;;;;17.13;100.00;100510.31;4984825;28;20141;-74
2023/08/17 04:08:41;;;;;;;27.17;11.85;;;;;;;17.08;100.00;100496.41;4993247;28;20488;-76
2023/08/17 04:11:09;;;;;;;40.45;13.82;;;;;;;17.02;100.00;100503.03;4994815;28;20517;-76
2023/08/17 04:13:42;;;;;;;33.97;14.15;;;;;;;17.01;100.00;100516.50;5001937;28;20045;-76
2023/08/17 04:16:11;;;;;;;26.25;13.55;;;;;;;16.99;100.00;100519.31;4986171;28;20056;-76
2023/08/17 04:18:41;;;;;;;31.35;15.20;;;;;;;17.08;100.00;100524.00;4989295;28;20046;-76
2023/08/17 04:21:10;;;;;;;32.58;14.88;;;;;;;17.12;100.00;100519.28;4996959;28;20528;-76
2023/08/17 04:23:39;;;;;;;68.63;17.57;;;;;;;17.12;100.00;100527.31;4954167;28;20053;-77
2023/08/17 04:26:07;;;;;;;52.45;16.35;;;;;;;17.08;100.00;100531.19;4982263;28;20535;-76
2023/08/17 04:28:36;;;;;;;36.30;14.60;;;;;;;17.07;100.00;100533.00;4992606;28;20038;-75
2023/08/17 04:31:06;;;;;;;38.92;15.85;;;;;;;17.06;100.00;100536.63;4992466;28;20050;-75
2023/08/17 04:33:38;;;;;;;57.22;16.52;;;;;;;17.05;100.00;100537.59;4992712;28;20092;-76
2023/08/17 04:36:06;;;;;;;42.08;14.45;;;;;;;17.01;100.00;100535.25;4998896;28;20108;-75
2023/08/17 04:38:34;;;;;;;49.55;16.17;;;;;;;17.05;100.00;100539.41;4978454;28;20116;-76
2023/08/17 04:41:05;;;;;;;53.35;15.43;;;;;;;17.05;100.00;100537.59;5003481;28;20137;-76
2023/08/17 04:43:34;;;;;;;56.88;16.40;;;;;;;17.05;100.00;100534.91;4969277;28;20066;-77
2023/08/17 04:46:03;;;;;;;55.30;15.73;;;;;;;17.08;100.00;100532.03;4969720;28;20033;-75
2023/08/17 04:48:31;;;;;;;40.38;14.70;;;;;;;17.04;100.00;100521.66;4990688;28;20288;-76
2023/08/17 04:50:59;;;;;;;35.47;13.98;;;;;;;17.10;100.00;100532.78;4992441;28;20046;-75
2023/08/17 04:53:33;;;;;;;33.67;13.93;;;;;;;17.07;100.00;100541.03;4989153;28;20045;-75
2023/08/17 04:56:03;;;;;;;30.40;12.23;;;;;;;17.07;100.00;100532.13;4983296;28;21532;-73
2023/08/17 04:58:39;;;;;;;32.33;12.88;;;;;;;17.04;100.00;100535.88;4992207;28;20104;-76
2023/08/17 05:01:06;;;;;;;30.63;12.27;;;;;;;17.07;100.00;100538.34;4977810;28;20058;-76
2023/08/17 05:03:35;;;;;;;27.67;12.15;;;;;;;17.08;100.00;100545.41;4993040;28;20052;-76
2023/08/17 05:06:05;;;;;;;30.70;12.90;;;;;;;17.12;100.00;100544.22;4983382;28;20045;-77
2023/08/17 05:08:34;;;;;;;31.13;12.55;;;;;;;17.13;100.00;100548.63;5003944;28;20478;-77
2023/08/17 05:11:03;;;;;;;29.85;12.10;;;;;;;17.13;100.00;100553.97;4985525;28;20178;-75
2023/08/17 05:13:31;;;;;;;27.83;10.90;;;;;;;17.14;100.00;100553.00;4990761;28;20073;-75
2023/08/17 05:16:05;;;;;;;21.95;11.52;;;;;;;17.18;100.00;100556.28;4969067;28;20053;-76
2023/08/17 05:18:33;;;;;;;;;;;;;;;17.25;100.00;100546.88;4979765;28;20042;-76
2023/08/17 05:21:01;;;;;;;48.08;14.30;;;;;;;17.22;100.00;100551.59;4994644;28;19953;-73
2023/08/17 05:23:36;;;;;;;26.38;12.57;;;;;;;17.28;100.00;100556.50;4997248;28;20097;-75
2023/08/17 05:26:05;;;;;;;27.63;11.95;;;;;;;17.34;100.00;100559.59;4988049;28;20046;-75
2023/08/17 05:28:34;;;;;;;23.48;11.73;;;;;;;17.35;100.00;100547.91;4996448;28;20055;-75
2023/08/17 05:31:07;;;;;;;32.22;11.65;;;;;;;17.40;100.00;100542.22;4997020;28;20096;-74
2023/08/17 05:33:41;;;;;;;19.27;9.73;;;;;;;17.43;100.00;100542.00;5007261;28;20048;-73
2023/08/17 05:36:10;;;;;;;28.15;10.85;;;;;;;17.46;100.00;100533.75;5007472;28;20077;-74
2023/08/17 05:38:38;;;;;;;24.00;11.27;;;;;;;17.49;100.00;100538.88;5029319;28;20038;-74
2023/08/17 05:41:06;;;;;;;20.23;9.63;;;;;;;17.55;100.00;100554.50;5022823;28;20069;-74
2023/08/17 05:43:35;;;;;;;21.67;10.93;;;;;;;17.63;100.00;100556.63;5006219;28;20065;-77
2023/08/17 05:46:04;;;;;;;21.77;10.82;;;;;;;17.70;100.00;100557.91;4985502;28;20042;-76
2023/08/17 05:48:38;;;;;;;25.70;11.60;;;;;;;17.78;100.00;100556.38;4990453;28;20577;-76
2023/08/17 05:51:08;;;;;;;22.85;11.00;;;;;;;17.82;100.00;100562.34;4991531;28;20050;-76
2023/08/17 05:53:37;;;;;;;23.67;11.65;;;;;;;17.83;100.00;100564.03;4988911;28;20110;-74
2023/08/17 05:56:04;;;;;;;20.38;11.20;;;;;;;17.77;100.00;100560.03;5004267;28;20038;-76
2023/08/17 05:58:38;;;;;;;20.52;10.52;;;;;;;17.71;100.00;100562.28;4994128;28;20049;-75
2023/08/17 06:01:09;;;;;;;25.60;11.55;;;;;;;17.73;100.00;100560.34;4991394;28;20051;-77
2023/08/17 06:03:40;;;;;;;19.55;10.65;;;;;;;17.78;100.00;100561.72;5010448;28;20463;-76
2023/08/17 06:06:10;;;;;;;24.83;11.45;;;;;;;17.73;100.00;100558.53;4967199;28;20049;-77
2023/08/17 06:08:40;;;;;;;22.75;11.30;;;;;;;17.97;100.00;100576.41;5009678;28;20042;-75
2023/08/17 06:11:08;;;;;;;22.75;11.38;;;;;;;18.03;100.00;100571.47;5015080;28;20110;-76
2023/08/17 06:13:37;;;;;;;26.05;11.82;;;;;;;18.06;100.00;100562.34;4997862;28;20093;-75
2023/08/17 06:16:05;;;;;;;29.70;12.05;;;;;;;18.19;100.00;100572.00;4971508;28;20100;-74
2023/08/17 06:18:34;;;;;;;23.33;11.48;;;;;;;18.20;100.00;100576.41;4990441;28;20073;-74
2023/08/17 06:21:03;;;;;;;24.20;12.13;;;;;;;18.22;100.00;100584.34;5010385;28;20046;-75
2023/08/17 06:23:31;;;;;;;24.35;12.27;;;;;;;18.16;100.00;100582.09;5012176;28;20586;-75
2023/08/17 06:26:00;;;;;;;24.08;12.35;;;;;;;18.10;100.00;100579.91;4989107;28;20550;-75
2023/08/17 06:28:28;;;;;;;25.50;12.00;;;;;;;18.04;100.00;100583.03;5014280;28;20049;-76
2023/08/17 06:30:57;;;;;;;20.85;12.10;;;;;;;17.97;100.00;100596.03;4998780;28;20445;-74
2023/08/17 06:33:27;;;;;;;21.48;11.57;;;;;;;17.96;100.00;100585.41;4993954;28;20092;-74
2023/08/17 06:35:55;;;;;;;18.42;10.93;;;;;;;17.99;100.00;100582.50;4989132;28;20042;-75
2023/08/17 06:38:26;;;;;;;22.83;11.75;;;;;;;18.03;100.00;100592.91;5001311;28;20049;-78
2023/08/17 06:40:54;;;;;;;22.17;11.13;;;;;;;18.06;100.00;100586.47;5005505;28;20056;-76
2023/08/17 06:43:23;;;;;;;24.33;11.90;;;;;;;18.05;100.00;100579.38;4975324;28;20105;-76
2023/08/17 06:45:52;;;;;;;20.52;10.75;;;;;;;18.09;100.00;100587.09;5001185;28;20057;-77
2023/08/17 06:48:22;;;;;;;17.58;10.13;;;;;;;17.93;100.00;100572.28;5011207;28;20133;-76
2023/08/17 06:50:54;;;;;;;19.02;10.07;;;;;;;18.06;100.00;100575.75;4994319;28;20093;-76
2023/08/17 06:53:23;;;;;;;22.38;11.60;;;;;;;18.14;100.00;100576.00;5013405;28;20120;-77
2023/08/17 06:55:52;;;;;;;23.23;11.27;;;;;;;18.10;100.00;100571.88;4976838;28;20806;-77
2023/08/17 06:58:23;;;;;;;19.13;11.30;;;;;;;18.11;100.00;100569.03;5010073;28;20109;-75
2023/08/17 07:00:51;;;;;;;19.17;10.73;;;;;;;18.15;100.00;100575.03;4998539;28;20394;-78
2023/08/17 07:03:20;;;;;;;21.25;10.75;;;;;;;18.14;100.00;100571.50;4999657;28;20057;-78
2023/08/17 07:05:49;;;;;;;20.20;11.55;;;;;;;18.23;100.00;100565.47;5009528;28;20056;-76
2023/08/17 07:08:18;;;;;;;17.35;10.50;;;;;;;18.31;100.00;100572.91;5007531;28;20056;-77
2023/08/17 07:10:47;;;;;;;20.85;10.95;;;;;;;18.36;100.00;100578.78;4996694;28;20041;-77
2023/08/17 07:13:16;;;;;;;25.90;12.50;;;;;;;18.53;100.00;100586.38;4997445;28;20050;-78
2023/08/17 07:15:44;;;;;;;21.80;10.65;;;;;;;18.62;100.00;100584.84;5010434;28;20046;-76
2023/08/17 07:18:12;;;;;;;20.02;10.93;;;;;;;18.62;100.00;100579.47;4990087;28;20061;-77
2023/08/17 07:20:40;;;;;;;13.98;9.65;;;;;;;18.70;100.00;100584.25;4993130;28;20042;-75
2023/08/17 07:23:08;;;;;;;16.05;9.43;;;;;;;18.69;100.00;100569.13;4993438;28;20057;-77
2023/08/17 07:25:37;;;;;;;13.48;9.25;;;;;;;18.75;100.00;100584.72;5013726;28;20045;-75
2023/08/17 07:28:08;;;;;;;12.15;8.07;;;;;;;18.70;100.00;100577.06;4989976;28;20046;-76
2023/08/17 07:30:37;;;;;;;;;;;;;;;18.87;100.00;100590.03;4992210;28;20058;-77
2023/08/17 07:33:05;;;;;;;10.85;7.85;;;;;;;19.02;100.00;100587.09;5009039;28;20654;-77
2023/08/17 07:35:34;;;;;;;11.60;8.57;;;;;;;19.12;100.00;100588.06;4984822;28;20154;-76
2023/08/17 07:38:02;;;;;;;12.48;8.80;;;;;;;19.23;100.00;100578.19;4987619;28;20422;-75
2023/08/17 07:40:37;;;;;;;10.68;7.93;;;;;;;19.33;100.00;100598.94;4984873;28;20607;-79
2023/08/17 07:43:05;;;;;;;11.55;8.10;;;;;;;19.33;100.00;100590.88;4988307;28;20481;-77
2023/08/17 07:45:39;;;;;;;8.98;6.85;;;;;;;19.25;100.00;100605.75;4974988;28;20065;-76
2023/08/17 07:48:09;;;;;;;8.75;6.80;;;;;;;19.27;100.00;100590.38;4971440;28;20054;-78
2023/08/17 07:50:37;;;;;;;8.30;6.28;;;;;;;19.42;100.00;100599.03;4992943;28;20129;-76
2023/08/17 07:53:06;;;;;;;7.00;5.90;;;;;;;19.51;100.00;100603.72;4996473;28;20046;-77
2023/08/17 07:55:39;;;;;;;7.43;6.03;;;;;;;19.56;100.00;100593.44;4994779;28;20145;-76
2023/08/17 07:58:08;;;;;;;;;;;;;;;19.68;100.00;100596.09;4992556;28;20075;-76
2023/08/17 08:00:38;;;;;;;8.10;5.20;;;;;;;19.66;100.00;100598.94;4962902;28;19925;-75
2023/08/17 08:03:05;;;;;;;6.43;5.20;;;;;;;19.58;100.00;100596.00;4980638;28;20073;-76
2023/08/17 08:05:33;;;;;;;8.07;4.78;;;;;;;19.59;100.00;100598.56;4992523;28;20068;-77
2023/08/17 08:08:05;;;;;;;5.60;4.60;;;;;;;19.59;100.00;100592.34;4968761;28;20486;-77
2023/08/17 08:10:33;;;;;;;5.60;4.60;;;;;;;19.66;100.00;100590.88;4974604;28;20061;-77
2023/08/17 08:13:02;;;;;;;4.95;4.20;;;;;;;19.78;100.00;100587.19;4974235;28;20081;-77
2023/08/17 08:15:32;;;;;;;4.95;4.45;;;;;;;19.88;100.00;100593.50;4993891;28;20043;-76
2023/08/17 08:18:10;;;;;;;5.63;4.50;;;;;;;19.89;100.00;100587.13;4962976;28;20113;-76
2023/08/17 08:20:39;;;;;;;4.80;4.20;;;;;;;19.96;100.00;100587.50;4961871;28;20039;-76
2023/08/17 08:23:09;;;;;;;6.03;5.05;;;;;;;20.16;100.00;100586.66;4992531;28;20044;-76
2023/08/17 08:25:38;;;;;;;5.72;5.05;;;;;;;20.19;100.00;100586.41;4978331;28;20054;-76
2023/08/17 08:28:09;;;;;;;4.22;3.72;;;;;;;20.20;100.00;100581.88;4954906;28;20117;-74
2023/08/17 08:30:38;;;;;;;6.15;4.35;;;;;;;20.41;100.00;100585.50;4976831;28;20042;-76
2023/08/17 08:33:10;;;;;;;4.60;3.85;;;;;;;20.57;100.00;100583.22;4994498;28;20070;-76
2023/08/17 08:35:40;;;;;;;5.63;4.00;;;;;;;20.82;100.00;100586.47;4971378;28;20446;-76
2023/08/17 08:38:11;;;;;;;6.57;3.53;;;;;;;20.89;100.00;100593.03;4973070;28;20058;-77
2023/08/17 08:40:41;;;;;;;5.03;3.85;;;;;;;20.98;100.00;100582.31;4976737;28;20319;-76
2023/08/17 08:43:10;;;;;;;;;;;;;;;20.98;100.00;100584.13;5000574;28;20039;-77
2023/08/17 08:45:40;;;;;;;6.18;3.40;;;;;;;21.02;100.00;100583.75;4979114;28;20413;-76
2023/08/17 08:48:12;;;;;;;7.95;3.70;;;;;;;21.07;100.00;100583.34;4968037;28;20046;-76
2023/08/17 08:50:43;;;;;;;3.30;2.97;;;;;;;21.26;100.00;100594.22;4991064;28;20050;-75
2023/08/17 08:53:15;;;;;;;3.53;2.70;;;;;;;21.38;100.00;100586.06;4978402;28;20105;-75
2023/08/17 08:55:50;;;;;;;3.13;2.70;;;;;;;21.65;100.00;100581.75;4975554;28;20047;-74
2023/08/17 08:58:19;;;;;;;3.83;3.10;;;;;;;22.03;100.00;100577.44;4967336;28;20421;-75
2023/08/17 09:00:50;;;;;;;3.67;2.55;;;;;;;22.09;100.00;100574.16;4973336;28;20050;-74
2023/08/17 09:03:25;;;;;;;4.10;2.35;;;;;;;22.19;100.00;100584.97;4992781;28;20097;-75
2023/08/17 09:05:56;;;;;;;5.47;2.25;;;;;;;22.07;100.00;100577.97;4975259;28;20606;-74
2023/08/17 09:08:28;;;;;;;2.30;2.10;;;;;;;21.98;100.00;100575.13;4948968;28;20556;-75
2023/08/17 09:10:59;;;;;;;2.80;2.40;;;;;;;22.17;100.00;100576.16;4993507;28;20049;-74
2023/08/17 09:13:27;;;;;;;3.30;2.10;;;;;;;22.51;100.00;100566.59;4975773;28;20129;-76
2023/08/17 09:15:55;;;;;;;2.80;2.38;;;;;;;22.79;100.00;100569.44;4982058;28;20470;-75
2023/08/17 09:18:24;;;;;;;2.75;2.05;;;;;;;22.86;100.00;100567.84;4983598;28;20053;-75
2023/08/17 09:20:53;;;;;;;2.53;2.33;;;;;;;22.80;100.00;100572.00;4973203;28;20503;-75
2023/08/17 09:23:24;;;;;;;1.98;1.70;;;;;;;22.65;100.00;100566.19;4973652;28;20122;-74
2023/08/17 09:25:57;;;;;;;2.33;1.98;;;;;;;22.44;100.00;100570.03;4980127;28;20038;-77
2023/08/17 09:28:27;;;;;;;3.33;2.20;;;;;;;22.24;100.00;100566.50;4989976;28;20051;-75
2023/08/17 09:30:58;;;;;;;2.20;2.00;;;;;;;22.08;100.00;100561.66;4993865;28;20050;-75
2023/08/17 09:33:30;;;;;;;2.80;2.10;;;;;;;22.00;100.00;100564.22;4993435;28;20061;-75
2023/08/17 09:36:00;;;;;;;2.22;2.00;;;;;;;21.99;100.00;100565.19;4994176;28;20046;-76
2023/08/17 09:38:29;;;;;;;2.35;2.15;;;;;;;22.20;100.00;100567.75;4991700;28;20057;-76
2023/08/17 09:41:00;;;;;;;2.80;2.10;;;;;;;22.43;100.00;100565.63;4992157;28;20046;-75
2023/08/17 09:43:32;;;;;;;4.55;2.40;;;;;;;22.56;100.00;100558.94;4996349;28;20542;-75
2023/08/17 09:46:03;;;;;;;2.00;1.80;;;;;;;22.57;100.00;100570.56;5008080;28;20070;-75
2023/08/17 09:48:32;;;;;;;2.25;2.15;;;;;;;22.40;100.00;100558.66;4990376;28;20038;-75
2023/08/17 09:51:02;;;;;;;2.88;2.17;;;;;;;22.33;100.00;100560.25;4971996;28;20043;-76
2023/08/17 09:53:30;;;;;;;2.42;1.83;;;;;;;22.29;100.00;100561.53;4975056;28;20042;-75
2023/08/17 09:56:00;;;;;;;2.38;1.92;;;;;;;22.21;100.00;100558.69;4971804;28;20044;-75
2023/08/17 09:58:29;;;;;;;;;;;;;;;22.15;100.00;100554.72;4990161;28;20137;-75
2023/08/17 10:01:05;;;;;;;3.38;2.28;;;;;;;22.12;100.00;100548.75;4978704;28;20041;-75
2023/08/17 10:03:40;;;;;;;5.25;2.20;;;;;;;22.08;100.00;100537.41;4976697;28;20073;-75
2023/08/17 10:06:11;;;;;;;2.35;1.90;;;;;;;22.14;100.00;100531.44;4993760;28;20284;-74
2023/08/17 10:08:43;;;;;;;3.15;2.20;;;;;;;22.25;100.00;100539.38;4984270;28;20046;-75
2023/08/17 10:11:14;;;;;;;3.85;2.28;;;;;;;22.41;100.00;100533.41;4972504;28;20061;-75
2023/08/17 10:13:52;;;;;;;3.45;2.42;;;;;;;22.51;100.00;100536.91;4993150;28;20066;-75
2023/08/17 10:16:24;;;;;;;3.03;2.10;;;;;;;22.46;100.00;100536.50;4979631;28;20133;-76
2023/08/17 10:19:07;;;;;;;2.63;2.40;;;;;;;22.42;100.00;100535.09;4973820;28;20057;-75
2023/08/17 10:21:43;;;;;;;3.65;2.10;;;;;;;22.39;100.00;100533.53;4975691;28;20049;-74
2023/08/17 10:24:13;;;;;;;2.55;2.20;;;;;;;22.30;100.00;100541.66;4968733;28;20087;-75
2023/08/17 10:26:43;;;;;;;2.00;1.80;;;;;;;22.42;100.00;100535.09;4960375;28;20899;-76
2023/08/17 10:29:11;;;;;;;2.35;2.15;;;;;;;22.58;100.00;100521.00;4992683;28;20075;-75
2023/08/17 10:31:46;;;;;;;2.60;2.30;;;;;;;22.84;100.00;100534.72;4974659;28;20043;-75
2023/08/17 10:34:16;;;;;;;2.28;2.08;;;;;;;22.92;100.00;100543.81;4980985;28;20468;-75
2023/08/17 10:36:48;;;;;;;2.90;2.20;;;;;;;22.83;100.00;100533.88;4990524;28;20078;-75
2023/08/17 10:39:23;;;;;;;3.65;2.38;;;;;;;22.82;100.00;100542.16;4967924;28;20049;-75
2023/08/17 10:41:56;;;;;;;2.55;1.90;;;;;;;22.84;100.00;100540.97;4978957;28;20070;-75
2023/08/17 10:44:40;;;;;;;2.10;1.90;;;;;;;22.83;100.00;100533.03;4990035;28;20061;-75
2023/08/17 10:47:23;;;;;;;3.17;2.15;;;;;;;22.80;100.00;100527.94;4985657;28;20489;-76
2023/08/17 10:49:59;;;;;;;2.45;1.75;;;;;;;22.86;100.00;100524.63;4975878;28;20050;-75
2023/08/17 10:52:32;;;;;;;2.13;1.85;;;;;;;22.99;100.00;100526.00;4986331;28;20187;-75
2023/08/17 10:55:08;;;;;;;3.03;2.60;;;;;;;23.19;100.00;100536.72;4984052;28;20105;-76
2023/08/17 10:57:39;;;;;;;2.65;2.13;;;;;;;23.17;100.00;100534.16;4981110;28;20046;-76
2023/08/17 11:00:26;;;;;;;2.38;2.10;;;;;;;23.16;100.00;100532.47;4974470;28;20146;-76
2023/08/17 11:02:56;;;;;;;2.78;2.00;;;;;;;23.32;100.00;100532.66;4975950;28;20066;-75
2023/08/17 11:05:55;;;;;;;2.30;1.95;;;;;;;23.48;100.00;100531.16;4977563;28;20050;-76
2023/08/17 11:08:28;;;;;;;2.50;2.17;;;;;;;23.67;100.00;100531.06;4930526;28;20054;-76
2023/08/17 11:11:03;;;;;;;2.30;2.10;;;;;;;23.72;100.00;100536.88;4977488;28;20430;-77
2023/08/17 11:13:34;;;;;;;2.50;2.25;;;;;;;23.83;100.00;100542.06;4994005;28;20042;-76
2023/08/17 11:16:04;;;;;;;2.40;1.80;;;;;;;23.81;100.00;100540.50;4972369;28;20388;-76
2023/08/17 11:18:34;;;;;;;3.83;2.40;;;;;;;23.91;100.00;100544.88;4966387;28;20065;-76
2023/08/17 11:21:09;;;;;;;2.28;2.08;;;;;;;23.95;100.00;100537.25;4975604;28;20043;-75
2023/08/17 11:23:41;;;;;;;4.72;1.90;;;;;;;23.97;100.00;100533.41;4964571;28;20070;-76
2023/08/17 11:26:11;;;;;;;3.92;2.30;;;;;;;23.95;100.00;100538.13;4960771;28;20054;-77